Main page
METAR-TAF:

METAR-TAF

Airports :

RMAF Butterworth

Butterworth, Malaysia

latitude: 05-27-58N, longitude: 100-23-28E, elevation: 2 m

Current weather observation

The report was made 25 minutes ago, at 18:00 UTC
Wind 3 kt from the East/Northeast
Temperature 27°C
Humidity 79%
Pressure 1010 hPa
Visibility: 8000 m
Few clouds at a height of 2500 ft

METAR: WMKB 171800Z 07003KT 8000 FEW025 27/23 Q1010 NOSIG

Time: 02:25 (18:25 UTC)

Forecast

The report was made 1 hour and 25 minutes ago, at 17:00 UTC
Forecast valid from 17 at 18 UTC to 18 at 18 UTC
Wind 5 kt from the East/Northeast
Visibility: 8000 m
Few clouds at a height of 2500 ft
Becoming
from 18 at 04 UTC to 18 at 06 UTC
Wind 10 kt from the West/Northwest
Visibility: 9000 m
Few clouds at a height of 2000 ft

TAF: WMKB 171700Z 1718/1818 06005KT 8000 FEW025 BECMG 1804/1806 30010KT 9000 FEW020

Weather observations and forecasts of more than 4000 airports (METAR and TAF reports).

The available stations are represented by yellow and red dots on the map.

Hover mouse over dot to see the name of the station.

Then click to see weather observations and forecasts.

To change the map : click on the green buttons with a black cross to zoom in, on the green button with a dash to zoom out, or on the green arrows for adjacent maps.


METAR-TAF: